createdAt,value
2023-04-23T00:37:39.375Z,56.40
2023-04-23T00:40:42.102Z,56.73
2023-04-23T00:43:45.888Z,56.75
2023-04-23T00:46:48.894Z,57.15
2023-04-23T00:49:53.192Z,56.79
2023-04-23T00:52:55.829Z,56.47
2023-04-23T00:55:58.819Z,56.13
2023-04-23T00:59:03.387Z,56.63
2023-04-23T01:02:05.911Z,56.80
2023-04-23T01:05:10.644Z,57.07
2023-04-23T01:08:16.559Z,57.51
2023-04-23T01:11:19.716Z,57.71
2023-04-23T01:14:22.085Z,57.64
2023-04-23T01:17:26.854Z,57.97
2023-04-23T01:20:29.251Z,57.70
2023-04-23T01:23:32.805Z,57.98
2023-04-23T01:26:35.535Z,57.66
2023-04-23T01:29:39.411Z,57.60
2023-04-23T01:32:42.444Z,57.38
2023-04-23T01:35:45.629Z,56.90
2023-04-23T01:38:48.086Z,57.10
2023-04-23T01:41:51.112Z,56.74
2023-04-23T01:44:53.611Z,56.84
2023-04-23T01:47:56.478Z,56.89
2023-04-23T01:50:59.756Z,56.69
2023-04-23T01:54:02.362Z,56.90
2023-04-23T01:57:04.880Z,57.44
2023-04-23T02:00:11.407Z,58.00
2023-04-23T02:03:14.111Z,58.16
2023-04-23T02:06:17.795Z,58.59
2023-04-23T02:09:20.329Z,59.04
2023-04-23T02:12:22.983Z,59.49
2023-04-23T02:15:25.659Z,59.92
2023-04-23T02:18:28.881Z,59.79
2023-04-23T02:21:31.662Z,59.72
2023-04-23T02:24:34.085Z,59.68
2023-04-23T02:27:37.025Z,59.68
2023-04-23T02:30:45.279Z,59.75
2023-04-23T02:33:48.137Z,60.30
2023-04-23T02:36:51.115Z,61.08
2023-04-23T02:39:54.107Z,61.72
2023-04-23T02:42:56.407Z,62.06
2023-04-23T02:45:59.083Z,62.32
2023-04-23T02:49:01.456Z,62.10
2023-04-23T02:52:04.319Z,61.86
2023-04-23T02:55:07.426Z,61.29
2023-04-23T02:58:10.346Z,61.15
2023-04-23T03:01:13.512Z,60.85
2023-04-23T03:04:16.643Z,60.33
2023-04-23T03:07:19.047Z,60.36
2023-04-23T03:10:21.844Z,60.10
2023-04-23T03:13:25.174Z,60.36
2023-04-23T03:16:29.126Z,60.74
2023-04-23T03:19:31.570Z,60.46
2023-04-23T03:22:34.663Z,61.17
2023-04-23T03:25:37.268Z,61.34
2023-04-23T03:28:39.976Z,62.31
2023-04-23T03:31:42.365Z,62.09
2023-04-23T03:34:45.358Z,62.13
2023-04-23T03:37:47.753Z,62.46
2023-04-23T03:40:51.298Z,63.18
2023-04-23T03:43:53.849Z,63.22
2023-04-23T03:46:56.721Z,63.60
2023-04-23T03:49:59.175Z,63.40
2023-04-23T03:53:02.109Z,64.46
2023-04-23T03:56:06.144Z,64.12
2023-04-23T03:59:10.940Z,64.23
2023-04-23T04:02:13.439Z,64.21
2023-04-23T04:05:16.906Z,64.09
2023-04-23T04:08:20.909Z,63.84
2023-04-23T04:11:23.533Z,62.89
2023-04-23T04:14:26.079Z,63.17
2023-04-23T04:17:28.734Z,63.27
2023-04-23T04:20:31.161Z,63.54
2023-04-23T04:23:35.007Z,63.41
2023-04-23T04:26:37.484Z,63.89
2023-04-23T04:29:40.950Z,64.20
2023-04-23T04:32:45.677Z,64.32
2023-04-23T04:35:49.679Z,64.18
2023-04-23T04:38:51.953Z,64.04
2023-04-23T04:41:54.587Z,63.92
2023-04-23T04:44:59.616Z,63.95
2023-04-23T04:48:02.317Z,63.96
2023-04-23T04:51:04.803Z,63.82
2023-04-23T04:54:08.153Z,63.95
2023-04-23T04:57:10.990Z,63.49
2023-04-23T05:00:24.768Z,63.45
2023-04-23T05:03:27.450Z,63.43
2023-04-23T05:06:31.203Z,63.12
2023-04-23T05:09:33.786Z,62.77
2023-04-23T05:12:37.241Z,62.51
2023-04-23T05:15:39.582Z,61.80
2023-04-23T05:18:42.407Z,61.60
2023-04-23T05:21:44.840Z,61.22
2023-04-23T05:24:47.481Z,60.44
2023-04-23T05:27:49.904Z,60.17
2023-04-23T05:30:52.651Z,59.46
2023-04-23T05:33:54.948Z,59.19
2023-04-23T05:36:57.577Z,58.44
2023-04-23T05:40:00.123Z,57.83
2023-04-23T05:43:02.911Z,58.43
2023-04-23T05:46:07.300Z,57.99
2023-04-23T05:49:10.349Z,57.77
2023-04-23T05:52:13.026Z,57.40
2023-04-23T05:55:20.541Z,56.86
2023-04-23T05:58:23.594Z,56.37
2023-04-23T06:01:26.292Z,54.75
2023-04-23T06:04:29.125Z,53.25
2023-04-23T06:07:32.546Z,51.75
2023-04-23T06:10:35.205Z,50.57
2023-04-23T06:13:42.839Z,49.74
2023-04-23T06:16:46.580Z,49.00
2023-04-23T06:19:49.085Z,48.87
2023-04-23T06:22:51.697Z,48.45
2023-04-23T06:25:54.076Z,48.09
2023-04-23T06:28:56.741Z,47.81
2023-04-23T06:32:03.567Z,47.03
2023-04-23T06:35:07.568Z,46.49
2023-04-23T06:38:10.633Z,46.25
2023-04-23T06:41:13.346Z,45.62
2023-04-23T06:44:15.988Z,45.01
2023-04-23T06:47:20.234Z,44.75
2023-04-23T06:50:22.671Z,44.30
2023-04-23T06:53:25.290Z,43.53
2023-04-23T06:56:27.596Z,43.00
2023-04-23T06:59:30.283Z,42.24
2023-04-23T07:02:32.980Z,42.63
2023-04-23T07:05:36.102Z,42.58
2023-04-23T07:08:39.759Z,42.30
2023-04-23T07:11:42.451Z,42.12
2023-04-23T07:14:44.898Z,42.38
2023-04-23T07:17:47.574Z,41.82
2023-04-23T07:20:49.950Z,40.56
2023-04-23T07:23:52.733Z,40.39
2023-04-23T07:26:55.629Z,40.79
2023-04-23T07:29:58.375Z,41.08
2023-04-23T07:33:01.061Z,40.81
2023-04-23T07:36:04.168Z,40.33
2023-04-23T07:39:06.836Z,37.43
2023-04-23T07:42:09.595Z,34.95
2023-04-23T07:45:12.273Z,34.44
2023-04-23T07:48:15.849Z,33.33
2023-04-23T07:51:18.279Z,33.36
2023-04-23T07:54:20.989Z,32.90
2023-04-23T07:57:23.473Z,33.23
2023-04-23T08:00:26.113Z,33.07
2023-04-23T08:03:29.347Z,32.75
2023-04-23T08:06:35.111Z,32.48
2023-04-23T08:09:37.738Z,32.11
2023-04-23T08:12:40.159Z,32.63
2023-04-23T08:15:42.856Z,32.41
2023-04-23T08:18:54.498Z,32.83
2023-04-23T08:22:07.178Z,32.58
2023-04-23T08:25:10.145Z,32.31
2023-04-23T08:28:12.779Z,32.45
2023-04-23T08:31:25.560Z,32.13
2023-04-23T08:34:29.430Z,31.56
2023-04-23T08:37:31.869Z,31.60
2023-04-23T08:40:37.759Z,31.10
2023-04-23T08:44:04.415Z,30.74
2023-04-23T08:47:09.229Z,30.81
2023-04-23T08:50:13.236Z,29.92
2023-04-23T08:53:20.000Z,30.05
2023-04-23T08:56:24.300Z,30.13
2023-04-23T08:59:30.745Z,30.19
2023-04-23T09:02:35.092Z,29.94
2023-04-23T09:05:38.029Z,29.90
2023-04-23T09:08:40.666Z,30.41
2023-04-23T09:11:43.481Z,29.96
2023-04-23T09:14:45.989Z,29.96
2023-04-23T09:17:50.003Z,30.19
2023-04-23T09:20:53.686Z,29.41
2023-04-23T09:23:56.404Z,29.65
2023-04-23T09:26:59.087Z,29.48
2023-04-23T09:30:05.014Z,29.17
2023-04-23T09:33:07.554Z,28.87
2023-04-23T09:36:13.908Z,28.80
2023-04-23T09:39:25.974Z,28.25
2023-04-23T09:42:28.871Z,28.37
2023-04-23T09:45:32.817Z,27.52
2023-04-23T09:48:43.088Z,27.13
2023-04-23T09:51:47.945Z,27.87
2023-04-23T09:54:50.887Z,27.84
2023-04-23T09:57:53.455Z,27.60
2023-04-23T10:01:07.619Z,26.90
2023-04-23T10:04:12.853Z,26.30
2023-04-23T10:07:20.055Z,26.75
2023-04-23T10:10:23.532Z,26.03
2023-04-23T10:13:26.888Z,24.73
2023-04-23T10:16:38.569Z,24.76
2023-04-23T10:19:50.071Z,24.55
2023-04-23T10:22:54.817Z,24.75
2023-04-23T10:25:59.201Z,25.55
2023-04-23T10:29:04.286Z,25.36
2023-04-23T10:32:07.263Z,25.05
2023-04-23T10:35:10.706Z,23.97
2023-04-23T10:38:14.181Z,24.20
2023-04-23T10:41:20.719Z,24.42
2023-04-23T10:44:42.248Z,23.51
2023-04-23T10:47:46.477Z,23.73
2023-04-23T10:51:09.803Z,23.26
2023-04-23T10:54:21.454Z,23.22
2023-04-23T10:57:24.108Z,23.00
2023-04-23T11:00:28.178Z,23.01
2023-04-23T11:03:43.955Z,22.12
2023-04-23T11:06:51.226Z,22.18
2023-04-23T11:09:54.205Z,22.30
2023-04-23T11:12:56.813Z,22.54
2023-04-23T11:16:21.929Z,22.39
2023-04-23T11:19:24.712Z,21.93
2023-04-23T11:22:35.787Z,21.45
2023-04-23T11:25:42.210Z,21.14
2023-04-23T11:28:45.162Z,21.57
2023-04-23T11:32:01.754Z,21.53
2023-04-23T11:35:07.662Z,21.99
2023-04-23T11:38:11.202Z,21.52
2023-04-23T11:41:13.930Z,21.24
2023-04-23T11:44:16.661Z,21.62
2023-04-23T11:47:19.272Z,21.60
2023-04-23T11:50:33.692Z,21.33
2023-04-23T11:53:36.478Z,21.11
2023-04-23T11:56:40.050Z,21.63
2023-04-23T11:59:42.714Z,21.71
2023-04-23T12:03:00.003Z,21.68
2023-04-23T12:06:03.066Z,21.94
2023-04-23T12:09:05.974Z,21.76
2023-04-23T12:12:08.716Z,22.03
2023-04-23T12:15:11.501Z,22.51
2023-04-23T12:18:14.219Z,22.38
2023-04-23T12:21:18.879Z,22.83
2023-04-23T12:24:26.185Z,23.10
2023-04-23T12:27:30.873Z,22.47
2023-04-23T12:30:42.281Z,22.37
2023-04-23T12:33:44.681Z,22.28
2023-04-23T12:36:55.366Z,21.80
2023-04-23T12:39:59.642Z,21.57
2023-04-23T12:43:02.582Z,21.95
2023-04-23T12:46:04.922Z,21.78
2023-04-23T12:49:07.567Z,21.88
2023-04-23T12:52:12.108Z,22.71
2023-04-23T12:55:16.248Z,23.69
2023-04-23T12:58:18.686Z,23.79
2023-04-23T13:01:21.533Z,23.57
2023-04-23T13:04:23.888Z,23.49
2023-04-23T13:07:26.670Z,23.87
2023-04-23T13:10:30.973Z,24.24
2023-04-23T13:13:33.692Z,23.82
2023-04-23T13:16:36.759Z,23.06
2023-04-23T13:19:40.549Z,22.74
2023-04-23T13:22:43.074Z,22.50
2023-04-23T13:25:45.752Z,22.36
2023-04-23T13:28:48.125Z,22.64
2023-04-23T13:31:51.234Z,22.34
2023-04-23T13:34:53.732Z,22.43
2023-04-23T13:37:56.319Z,22.05
2023-04-23T13:40:58.713Z,22.69
2023-04-23T13:44:01.340Z,22.10
2023-04-23T13:47:04.081Z,22.01
2023-04-23T13:50:07.469Z,21.83
2023-04-23T13:53:10.851Z,22.08
2023-04-23T13:56:13.650Z,22.44
2023-04-23T13:59:19.811Z,22.54
2023-04-23T14:02:24.123Z,22.18
2023-04-23T14:05:26.930Z,22.02
2023-04-23T14:08:29.328Z,21.77
2023-04-23T14:11:32.052Z,21.79
2023-04-23T14:14:34.511Z,22.04
2023-04-23T14:17:39.228Z,22.24
2023-04-23T14:20:42.114Z,22.44
2023-04-23T14:23:45.846Z,22.41
2023-04-23T14:26:50.068Z,22.36
2023-04-23T14:29:56.004Z,22.29
2023-04-23T14:32:58.498Z,22.65
2023-04-23T14:36:01.252Z,22.22
2023-04-23T14:39:05.479Z,22.73
2023-04-23T14:42:08.226Z,23.25
2023-04-23T14:45:11.109Z,24.04
2023-04-23T14:48:13.773Z,24.27
2023-04-23T14:51:16.094Z,24.59
2023-04-23T14:54:18.971Z,24.54
2023-04-23T14:57:21.898Z,24.67
2023-04-23T15:00:26.547Z,24.83
2023-04-23T15:03:29.052Z,24.85
2023-04-23T15:06:31.788Z,24.90
2023-04-23T15:09:34.184Z,24.77
2023-04-23T15:12:50.814Z,24.64
2023-04-23T15:16:00.170Z,24.83
2023-04-23T15:19:10.261Z,24.89
2023-04-23T15:22:12.618Z,25.12
2023-04-23T15:25:16.568Z,24.99
2023-04-23T15:28:18.998Z,24.83
2023-04-23T15:31:21.614Z,24.77
2023-04-23T15:34:24.428Z,24.67
2023-04-23T15:37:28.049Z,24.92
2023-04-23T15:40:30.685Z,24.98
2023-04-23T15:43:33.506Z,24.99
2023-04-23T15:46:35.802Z,25.02
2023-04-23T15:49:38.443Z,25.27
2023-04-23T15:52:41.809Z,25.56
2023-04-23T15:55:44.499Z,25.60
2023-04-23T15:58:46.930Z,25.70
2023-04-23T16:01:49.724Z,25.84
2023-04-23T16:04:52.677Z,25.85
2023-04-23T16:07:55.062Z,25.96
2023-04-23T16:10:58.327Z,26.18
2023-04-23T16:14:00.761Z,26.12
2023-04-23T16:17:03.501Z,26.11
2023-04-23T16:20:06.583Z,26.14
2023-04-23T16:23:09.304Z,26.23
2023-04-23T16:26:11.653Z,26.37
2023-04-23T16:29:22.009Z,26.47
2023-04-23T16:32:25.530Z,26.53
2023-04-23T16:35:28.218Z,26.66
2023-04-23T16:38:30.636Z,26.59
2023-04-23T16:41:33.687Z,26.66
2023-04-23T16:44:36.122Z,26.67
2023-04-23T16:47:38.970Z,26.62
2023-04-23T16:50:42.822Z,26.52
2023-04-23T16:53:45.495Z,26.72
2023-04-23T16:56:47.852Z,26.76
2023-04-23T16:59:51.991Z,26.92
2023-04-23T17:02:55.123Z,26.78
2023-04-23T17:06:28.553Z,26.88
2023-04-23T17:09:31.745Z,26.96
2023-04-23T17:12:34.409Z,27.04
2023-04-23T17:18:39.291Z,27.31
2023-04-23T17:21:42.368Z,27.61
2023-04-23T17:24:45.332Z,27.91
2023-04-23T17:27:47.806Z,27.85
2023-04-23T17:30:50.643Z,28.08
2023-04-23T17:33:54.233Z,28.25
2023-04-23T17:36:57.026Z,28.39
2023-04-23T17:39:59.409Z,28.64
2023-04-23T17:43:02.045Z,28.93
2023-04-23T17:46:04.772Z,29.04
2023-04-23T17:49:08.115Z,29.24
2023-04-23T17:52:10.604Z,29.36
2023-04-23T17:55:13.643Z,29.51
2023-04-23T17:58:16.543Z,29.70
2023-04-23T18:01:19.411Z,29.76
2023-04-23T18:04:23.074Z,29.77
2023-04-23T18:07:25.643Z,29.90
2023-04-23T18:10:28.921Z,30.01
2023-04-23T18:13:31.386Z,30.13
2023-04-23T18:16:34.071Z,30.36
2023-04-23T18:19:37.220Z,30.52
2023-04-23T18:22:42.244Z,30.78
2023-04-23T18:25:44.621Z,30.91
2023-04-23T18:28:47.239Z,31.03
2023-04-23T18:31:49.620Z,31.11
2023-04-23T18:34:52.459Z,31.25
2023-04-23T18:38:02.703Z,31.43
2023-04-23T18:41:05.612Z,31.43
2023-04-23T18:44:07.984Z,31.62
2023-04-23T18:47:10.846Z,31.62
2023-04-23T18:50:42.029Z,31.78
2023-04-23T18:53:46.103Z,31.91
2023-04-23T18:56:49.593Z,31.88
2023-04-23T18:59:52.402Z,32.04
2023-04-23T19:02:55.043Z,32.21
2023-04-23T19:05:57.932Z,32.22
2023-04-23T19:09:01.510Z,32.16
2023-04-23T19:12:04.467Z,32.31
2023-04-23T19:15:07.425Z,32.24
2023-04-23T19:18:10.129Z,32.25
2023-04-23T19:21:12.589Z,32.50
2023-04-23T19:24:15.319Z,32.51
2023-04-23T19:27:17.820Z,32.66
2023-04-23T19:30:20.523Z,32.73
2023-04-23T19:33:23.858Z,32.92
2023-04-23T19:36:26.513Z,33.11
2023-04-23T19:39:29.020Z,33.24
2023-04-23T19:42:32.653Z,33.20
2023-04-23T19:45:35.585Z,33.46
2023-04-23T19:48:38.465Z,33.57
2023-04-23T19:51:40.904Z,33.56
2023-04-23T19:54:48.934Z,33.66
2023-04-23T19:57:51.391Z,33.87
2023-04-23T20:00:54.186Z,34.07
2023-04-23T20:03:57.103Z,34.35
2023-04-23T20:06:59.724Z,34.48
2023-04-23T20:10:02.409Z,34.56
2023-04-23T20:13:04.819Z,34.72
2023-04-23T20:16:08.256Z,34.99
2023-04-23T20:19:12.641Z,35.14
2023-04-23T20:22:15.663Z,35.33
2023-04-23T20:25:19.252Z,35.30
2023-04-23T20:28:23.344Z,35.47
2023-04-23T20:31:25.863Z,35.75
2023-04-23T20:34:28.546Z,35.97
2023-04-23T20:37:31.016Z,36.04
2023-04-23T20:40:34.560Z,36.28
2023-04-23T20:43:38.778Z,36.38
2023-04-23T20:46:41.450Z,36.93
2023-04-23T20:49:44.084Z,38.59
2023-04-23T20:52:46.957Z,38.97
2023-04-23T20:55:49.350Z,40.14
2023-04-23T20:58:52.069Z,39.83
2023-04-23T21:01:54.562Z,40.50
2023-04-23T21:04:57.386Z,40.70
2023-04-23T21:07:59.725Z,41.02
2023-04-23T21:11:02.855Z,41.33
2023-04-23T21:14:08.855Z,40.93
2023-04-23T21:17:11.712Z,41.25
2023-04-23T21:20:14.287Z,41.54
2023-04-23T21:23:16.986Z,41.44
2023-04-23T21:26:19.607Z,41.16
2023-04-23T21:29:22.299Z,40.99
2023-04-23T21:32:25.786Z,41.58
2023-04-23T21:35:28.470Z,40.99
2023-04-23T21:38:30.862Z,41.35
2023-04-23T21:41:33.633Z,40.20
2023-04-23T21:44:36.771Z,41.11
2023-04-23T21:47:41.159Z,41.04
2023-04-23T21:50:43.485Z,39.04
2023-04-23T21:53:46.102Z,39.02
2023-04-23T21:56:48.562Z,38.76
2023-04-23T21:59:51.396Z,38.80
2023-04-23T22:02:56.687Z,38.92
2023-04-23T22:06:01.357Z,38.95
2023-04-23T22:09:04.353Z,39.09
2023-04-23T22:12:08.730Z,39.20
2023-04-23T22:15:13.549Z,39.32
2023-04-23T22:18:16.230Z,39.58
2023-04-23T22:21:18.628Z,39.78
2023-04-23T22:24:21.356Z,39.63
2023-04-23T22:27:23.699Z,40.15
2023-04-23T22:30:26.335Z,40.14
2023-04-23T22:33:29.430Z,40.42
2023-04-23T22:36:32.351Z,40.46
2023-04-23T22:39:34.789Z,40.60
2023-04-23T22:42:37.762Z,40.74
2023-04-23T22:45:40.338Z,41.09
2023-04-23T22:48:44.520Z,41.22
2023-04-23T22:51:46.805Z,41.34
2023-04-23T22:54:49.486Z,42.17
2023-04-23T22:57:51.973Z,43.82
2023-04-23T23:00:55.575Z,43.26
2023-04-23T23:03:58.159Z,44.48
2023-04-23T23:07:01.431Z,43.24
2023-04-23T23:10:03.937Z,43.39
2023-04-23T23:13:06.604Z,42.98
2023-04-23T23:16:09.202Z,43.14
2023-04-23T23:19:12.675Z,43.08
2023-04-23T23:22:15.061Z,43.19
2023-04-23T23:25:17.787Z,43.24
2023-04-23T23:28:20.295Z,43.56
2023-04-23T23:31:26.029Z,43.48
2023-04-23T23:34:28.546Z,43.47
2023-04-23T23:37:31.193Z,43.39
2023-04-23T23:40:33.668Z,43.42
2023-04-23T23:43:36.274Z,43.42
2023-04-23T23:46:39.415Z,43.44
2023-04-23T23:49:42.272Z,43.46
2023-04-23T23:52:44.799Z,44.62
2023-04-23T23:55:47.342Z,44.25
2023-04-23T23:58:49.631Z,44.20
